Wind from: 25-06-2017 07:10 until: 23:59 warning for: Wind level: Yellow info button

Nearby METAR Reports

 

ENZV - Stavanger
Päivitetty: 25/06/2017 11:50
Nearby showers, mostly cloudy
Nearby showers, mostly cloudy
 Tuulen suunta LLO
Tuuli: LLO 31 km/h, Puuskatuuli: 52 km/h
Lämpötila: 12°C
Kastepiste: 9°C
Kosteus: 82%
Ilmanpaine: 994 hPa
Yhteenveto: Nearby showers
Clouds: Enimmäkseen pilvistä
Visibility: 10 km
2017/06/25 09:50 ENZV 250950Z 25017G28KT 9999 VCSH SCT020CB BKN037 12/09 Q0994 TEMPO SHRA
ENBR - Bergen
Päivitetty: 25/06/2017 11:50
Rain showers, mostly cloudy
Rain showers, mostly cloudy
 Tuulen suunta ELO
Tuuli: ELO 28 km/h
Lämpötila: 11°C
Kastepiste: 10°C
Kosteus: 94%
Ilmanpaine: 989 hPa
Yhteenveto: Rain showers
Clouds: Enimmäkseen pilvistä
Visibility: 9 km
2017/06/25 09:50 ENBR 250950Z 20015KT 9000 SHRA FEW005 SCT010 BKN015CB 11/10 Q0989 RERA TEMPO 3000 SHRA BKN012CB RMK WIND 1200FT 22015KT
 
ENHD - Haugesund
Päivitetty: 25/06/2017 11:50
Nearby showers, mostly cloudy
Nearby showers, mostly cloudy
 Tuulen suunta LLO
Tuuli: LLO 46 km/h
Lämpötila: 13°C
Kastepiste: 10°C
Kosteus: 82%
Ilmanpaine: 992 hPa
Yhteenveto: Nearby showers
Clouds: Enimmäkseen pilvistä
Visibility: 10 km
2017/06/25 09:50 ENHD 250950Z 24025KT 9999 VCSH FEW018CB BKN025 13/10 Q0992
ENCN - Kristiansand
Päivitetty: 25/06/2017 11:50
Nearby showers, partly cloudy
Nearby showers, partly cloudy
 Tuulen suunta LLO
Tuuli: LLO 30 km/h
Lämpötila: 14°C
Kastepiste: 8°C
Kosteus: 67%
Ilmanpaine: 996 hPa
Yhteenveto: Nearby showers
Clouds: Puolipilvistä
Visibility: 10 km
2017/06/25 09:50 ENCN 250950Z 25016KT 9999 VCSH FEW034CB SCT057 14/08 Q0996 RERA
 
ENBO - Bodø
Päivitetty: 25/06/2017 11:50
Light rain, mostly cloudy
Light rain, mostly cloudy
 Tuulen suunta I
Tuuli: I 15 km/h
Lämpötila: 12°C
Kastepiste: 10°C
Kosteus: 88%
Ilmanpaine: 992 hPa
Yhteenveto: Heikkoa sadetta
Clouds: Enimmäkseen pilvistä
Visibility: 10 km
2017/06/25 09:50 ENBO 250950Z 08008KT 9999 -RA FEW008 SCT020 BKN060 12/10 Q0992 NOSIG
ENKR - Kirkenes
Päivitetty: 25/06/2017 11:50
Enimmäkseen pilvistä
Enimmäkseen pilvistä
 Tuulen suunta IKA
Tuuli: IKA 15 km/h
Lämpötila: 13°C
Kastepiste: 4°C
Kosteus: 55%
Ilmanpaine: 1000 hPa
Clouds: Enimmäkseen pilvistä
Visibility: 10 km
2017/06/25 09:50 ENKR 250950Z 12008KT 080V160 9999 SCT039 BKN062 13/04 Q1000 RMK WIND 731FT 13011KT
 
ENVA - Trondheim
Päivitetty: 25/06/2017 11:50
Few clouds
Few clouds
 Tuulen suunta LLO
Tuuli: LLO 11 km/h
Lämpötila: 14°C
Kastepiste: 8°C
Kosteus: 67%
Ilmanpaine: 991 hPa
Clouds: Few clouds
Visibility: 10 km
2017/06/25 09:50 ENVA 250950Z 25006KT 9999 FEW057TCU 14/08 Q0991 NOSIG RMK WIND 670FT 32003KT
ENGM - Oslo
Päivitetty: 25/06/2017 11:50
Enimmäkseen pilvistä
Enimmäkseen pilvistä
 Tuulen suunta ELO
Tuuli: ELO 19 km/h
Lämpötila: 15°C
Kastepiste: 4°C
Kosteus: 48%
Ilmanpaine: 992 hPa
Clouds: Enimmäkseen pilvistä
Visibility: 10 km
2017/06/25 09:50 ENGM 250950Z 21010KT 9999 FEW044 SCT120 BKN180 15/04 Q0992 NOSIG